Impacts METAR Board
IDs:

KBOS - Boston/Logan Intl, MA, US

Updated at: 2200 UTC 14 Aug 2018
Potential Impact None Slight Moderate High
Time 14/10Z 14/11Z 14/12Z 14/13Z 14/14Z 14/15Z 14/16Z 14/17Z 14/18Z 14/19Z 14/20Z 14/21Z 14/22Z
Temp70 69 70 72 73 74 75 75 73 79 78 79 78
Dewpt69 68 69 71 72 72 72 71 72 73 72 72 71
Altim29.92 29.92 29.93 29.92 29.92 29.91 29.90 29.89 29.87 29.86 29.84 29.83 29.82
VIS0.25 0.25 0.25 0.25 0.25 2 0.5 3 0.25 6 8 10 10
CIG2 2 3 2 2 110 2 250 2 34 38 200 45
CoverOVXOVXOVXOVXOVXOVCOVCBKNOVCBKNBKNBKNBKN
FltCatLIFRLIFRLIFRLIFRLIFRIFRLIFRMVFRLIFRVFRVFRVFRVFR
WXFGFGFGFGFGBRBRBRFGHZ------
WDir11070807008070705010102080
WSpd3 4 3 3 0 6 7 9 8 7 9 8 6
WGst-- -- -- -- -- -- -- -- -- -- -- -- --
Raw hourly METARs
KBOS 141004Z 11003KT M1/4SM R04R/1200V1400FT FG VV002 21/21 A2992 RMK AO2 TWR VIS 1/4 T02110206
KBOS 141059Z 07004KT M1/4SM R04R/1400V2400FT FG VV002 21/20 A2992 RMK AO2 TWR VIS 1/4 T02060200
KBOS 141154Z 08003KT 1/4SM R04R/1200V1600FT FG VV003 21/21 A2993 RMK AO2 TWR VIS 1/4 SLP134 70029 T02110206 10211 20206 51009
KBOS 141254Z 07003KT M1/4SM R04R/1000V2200FT FG VV002 22/22 A2992 RMK AO2 TWR VIS 1/4 SLP131 T02220217
KBOS 141354Z 00000KT 1/4SM R04R/1400V5500FT FG VV002 23/22 A2992 RMK AO2 SFC VIS 1/2 SLP131 T02280222
KBOS 141454Z 08006KT 2SM R04R/4500VP6000FT BR SCT004 OVC110 23/22 A2991 RMK AO2 SFC VIS 4 VIS 1/4 E CIG 002 E SLP128 T02330222 58006
KBOS 141554Z 07007KT 1/2SM R04R/P6000FT BR OVC002 24/22 A2990 RMK AO2 SFC VIS 4 SLP125 T02390222
KBOS 141654Z COR 07009KT 3SM BR FEW002 SCT006 BKN250 24/22 A2989 RMK AO2 SFC VIS 6 VIS 1 1/2 E LTG DSNT SW TCU S-NW SLP120 T02390217
KBOS 141754Z 05008KT 1/4SM R04R/5500VP6000FT FG OVC002 23/22 A2987 RMK AO2 TWR VIS 3/4 RAB35E52 SLP115 VIS SW-NW 2 P0001 60001 T02280222 10250 20211 58012
KBOS 141854Z 01007KT 6SM HZ FEW004 SCT013 BKN034 BKN200 26/23 A2986 RMK AO2 RAB07E14 SLP109 VIS N-SE 2 MDT CU ALQDS P0000 T02610228 $
KBOS 141954Z 01009KT 8SM FEW007 SCT016 BKN038 BKN200 26/22 A2984 RMK AO2 LTG DSNT N SLP103 SHRA N-NE P0000 T02560222
KBOS 142054Z 02008KT 10SM FEW016 SCT045 BKN200 26/22 A2983 RMK AO2 SLP099 MDT CU W AND N 60000 T02610222 56015
KBOS 142154Z 08006KT 10SM FEW021 BKN045 BKN200 26/22 A2982 RMK AO2 SLP098 T02560217



Page loaded:  22:04 UTC  |   03:04 PM Pacific  |   04:04 PM Mountain  |   05:04 PM Central  |   06:04 PM Eastern

 

ADVISORIES

FORECASTS

FORECASTS

OBSERVATIONS

USER TOOLS

ABOUT US